sensor_id;sensor_type;location;lat;lon;timestamp;P1;durP1;ratioP1;P2;durP2;ratioP2
1799;SDS011;919;48.274;12.292;2023-12-20T00:02:03;9.40;;;7.53;;
1799;SDS011;919;48.274;12.292;2023-12-20T00:04:30;12.93;;;8.90;;
1799;SDS011;919;48.274;12.292;2023-12-20T00:06:58;9.77;;;8.17;;
1799;SDS011;919;48.274;12.292;2023-12-20T00:09:24;9.70;;;7.53;;
1799;SDS011;919;48.274;12.292;2023-12-20T00:11:51;10.37;;;8.60;;
1799;SDS011;919;48.274;12.292;2023-12-20T00:14:17;12.00;;;8.57;;
1799;SDS011;919;48.274;12.292;2023-12-20T00:16:44;10.47;;;7.67;;
1799;SDS011;919;48.274;12.292;2023-12-20T00:19:11;10.77;;;7.10;;
1799;SDS011;919;48.274;12.292;2023-12-20T00:21:37;10.40;;;7.00;;
1799;SDS011;919;48.274;12.292;2023-12-20T00:24:06;8.93;;;7.20;;
1799;SDS011;919;48.274;12.292;2023-12-20T00:26:32;7.27;;;6.50;;
1799;SDS011;919;48.274;12.292;2023-12-20T00:28:59;10.43;;;9.00;;
1799;SDS011;919;48.274;12.292;2023-12-20T00:31:26;11.87;;;8.37;;
1799;SDS011;919;48.274;12.292;2023-12-20T00:33:52;8.50;;;7.40;;
1799;SDS011;919;48.274;12.292;2023-12-20T00:36:19;8.83;;;6.63;;
1799;SDS011;919;48.274;12.292;2023-12-20T00:38:46;8.10;;;6.87;;
1799;SDS011;919;48.274;12.292;2023-12-20T00:41:14;8.07;;;5.70;;
1799;SDS011;919;48.274;12.292;2023-12-20T00:43:41;8.57;;;6.20;;
1799;SDS011;919;48.274;12.292;2023-12-20T00:46:07;7.40;;;6.00;;
1799;SDS011;919;48.274;12.292;2023-12-20T00:48:34;5.67;;;5.07;;
1799;SDS011;919;48.274;12.292;2023-12-20T00:51:01;8.90;;;6.33;;
1799;SDS011;919;48.274;12.292;2023-12-20T00:53:28;7.07;;;5.90;;
1799;SDS011;919;48.274;12.292;2023-12-20T00:55:55;5.70;;;5.00;;
1799;SDS011;919;48.274;12.292;2023-12-20T00:58:25;9.73;;;6.80;;
1799;SDS011;919;48.274;12.292;2023-12-20T01:00:51;6.57;;;5.10;;
1799;SDS011;919;48.274;12.292;2023-12-20T01:03:18;7.53;;;5.73;;
1799;SDS011;919;48.274;12.292;2023-12-20T01:05:45;6.00;;;5.10;;
1799;SDS011;919;48.274;12.292;2023-12-20T01:08:12;8.33;;;5.20;;
1799;SDS011;919;48.274;12.292;2023-12-20T01:10:38;6.83;;;5.80;;
1799;SDS011;919;48.274;12.292;2023-12-20T01:13:05;5.47;;;4.97;;
1799;SDS011;919;48.274;12.292;2023-12-20T01:15:35;7.37;;;5.43;;
1799;SDS011;919;48.274;12.292;2023-12-20T01:18:02;5.20;;;4.67;;
1799;SDS011;919;48.274;12.292;2023-12-20T01:20:28;5.20;;;4.73;;
1799;SDS011;919;48.274;12.292;2023-12-20T01:22:55;6.77;;;4.60;;
1799;SDS011;919;48.274;12.292;2023-12-20T01:25:22;4.17;;;3.77;;
1799;SDS011;919;48.274;12.292;2023-12-20T01:27:49;3.83;;;2.87;;
1799;SDS011;919;48.274;12.292;2023-12-20T01:30:16;3.40;;;3.00;;
1799;SDS011;919;48.274;12.292;2023-12-20T01:32:44;4.90;;;2.87;;
1799;SDS011;919;48.274;12.292;2023-12-20T01:35:10;2.70;;;2.50;;
1799;SDS011;919;48.274;12.292;2023-12-20T01:37:38;5.20;;;3.53;;
1799;SDS011;919;48.274;12.292;2023-12-20T01:40:05;3.80;;;2.77;;
1799;SDS011;919;48.274;12.292;2023-12-20T01:42:33;3.40;;;2.37;;
1799;SDS011;919;48.274;12.292;2023-12-20T01:44:59;4.90;;;3.07;;
1799;SDS011;919;48.274;12.292;2023-12-20T01:47:27;6.60;;;4.80;;
1799;SDS011;919;48.274;12.292;2023-12-20T01:49:55;4.40;;;4.00;;
1799;SDS011;919;48.274;12.292;2023-12-20T01:52:22;4.57;;;3.57;;
1799;SDS011;919;48.274;12.292;2023-12-20T01:54:51;7.60;;;4.67;;
1799;SDS011;919;48.274;12.292;2023-12-20T01:57:19;6.33;;;4.53;;
1799;SDS011;919;48.274;12.292;2023-12-20T01:59:46;6.87;;;5.13;;
1799;SDS011;919;48.274;12.292;2023-12-20T02:02:13;5.33;;;3.93;;
1799;SDS011;919;48.274;12.292;2023-12-20T02:04:40;6.23;;;4.57;;
1799;SDS011;919;48.274;12.292;2023-12-20T02:07:09;4.40;;;4.10;;
1799;SDS011;919;48.274;12.292;2023-12-20T02:09:37;4.47;;;4.07;;
1799;SDS011;919;48.274;12.292;2023-12-20T02:12:05;5.87;;;3.97;;
1799;SDS011;919;48.274;12.292;2023-12-20T02:14:32;6.00;;;4.00;;
1799;SDS011;919;48.274;12.292;2023-12-20T02:16:58;5.57;;;4.00;;
1799;SDS011;919;48.274;12.292;2023-12-20T02:19:25;3.90;;;3.50;;
1799;SDS011;919;48.274;12.292;2023-12-20T02:22:05;4.90;;;3.90;;
1799;SDS011;919;48.274;12.292;2023-12-20T02:24:33;5.67;;;3.60;;
1799;SDS011;919;48.274;12.292;2023-12-20T02:26:59;4.13;;;3.60;;
1799;SDS011;919;48.274;12.292;2023-12-20T02:29:26;4.20;;;3.17;;
1799;SDS011;919;48.274;12.292;2023-12-20T02:31:53;5.63;;;3.30;;
1799;SDS011;919;48.274;12.292;2023-12-20T02:34:20;3.87;;;3.57;;
1799;SDS011;919;48.274;12.292;2023-12-20T02:36:46;3.60;;;3.30;;
1799;SDS011;919;48.274;12.292;2023-12-20T02:39:14;3.73;;;3.20;;
1799;SDS011;919;48.274;12.292;2023-12-20T02:41:41;5.30;;;4.27;;
1799;SDS011;919;48.274;12.292;2023-12-20T02:44:08;4.07;;;3.17;;
1799;SDS011;919;48.274;12.292;2023-12-20T02:46:35;4.63;;;3.20;;
1799;SDS011;919;48.274;12.292;2023-12-20T02:49:01;3.60;;;3.30;;
1799;SDS011;919;48.274;12.292;2023-12-20T02:51:28;3.23;;;2.80;;
1799;SDS011;919;48.274;12.292;2023-12-20T02:53:55;4.83;;;3.27;;
1799;SDS011;919;48.274;12.292;2023-12-20T02:56:22;3.23;;;2.93;;
1799;SDS011;919;48.274;12.292;2023-12-20T02:58:49;3.83;;;3.53;;
1799;SDS011;919;48.274;12.292;2023-12-20T03:01:16;3.70;;;3.03;;
1799;SDS011;919;48.274;12.292;2023-12-20T03:03:42;3.43;;;3.00;;
1799;SDS011;919;48.274;12.292;2023-12-20T03:06:09;3.83;;;2.70;;
1799;SDS011;919;48.274;12.292;2023-12-20T03:08:36;3.00;;;2.80;;
1799;SDS011;919;48.274;12.292;2023-12-20T03:11:03;3.90;;;3.10;;
1799;SDS011;919;48.274;12.292;2023-12-20T03:13:31;5.20;;;3.90;;
1799;SDS011;919;48.274;12.292;2023-12-20T03:15:58;2.67;;;2.47;;
1799;SDS011;919;48.274;12.292;2023-12-20T03:18:24;2.37;;;2.20;;
1799;SDS011;919;48.274;12.292;2023-12-20T03:20:53;4.30;;;2.90;;
1799;SDS011;919;48.274;12.292;2023-12-20T03:23:19;3.93;;;3.53;;
1799;SDS011;919;48.274;12.292;2023-12-20T03:25:46;3.03;;;2.83;;
1799;SDS011;919;48.274;12.292;2023-12-20T03:28:14;3.20;;;2.93;;
1799;SDS011;919;48.274;12.292;2023-12-20T03:30:42;2.30;;;2.03;;
1799;SDS011;919;48.274;12.292;2023-12-20T03:33:08;2.73;;;2.50;;
1799;SDS011;919;48.274;12.292;2023-12-20T03:35:35;5.27;;;2.97;;
1799;SDS011;919;48.274;12.292;2023-12-20T03:38:02;3.23;;;2.97;;
1799;SDS011;919;48.274;12.292;2023-12-20T03:40:29;3.53;;;3.20;;
1799;SDS011;919;48.274;12.292;2023-12-20T03:42:55;3.07;;;2.80;;
1799;SDS011;919;48.274;12.292;2023-12-20T03:45:22;2.97;;;2.73;;
1799;SDS011;919;48.274;12.292;2023-12-20T03:47:50;3.40;;;2.70;;
1799;SDS011;919;48.274;12.292;2023-12-20T03:50:20;3.63;;;2.93;;
1799;SDS011;919;48.274;12.292;2023-12-20T03:52:46;3.33;;;2.73;;
1799;SDS011;919;48.274;12.292;2023-12-20T03:55:13;2.70;;;2.50;;
1799;SDS011;919;48.274;12.292;2023-12-20T03:57:40;2.87;;;2.57;;
1799;SDS011;919;48.274;12.292;2023-12-20T04:00:07;3.07;;;2.87;;
1799;SDS011;919;48.274;12.292;2023-12-20T04:02:35;3.27;;;2.97;;
1799;SDS011;919;48.274;12.292;2023-12-20T04:05:03;2.90;;;2.60;;
1799;SDS011;919;48.274;12.292;2023-12-20T04:07:31;2.23;;;2.03;;
1799;SDS011;919;48.274;12.292;2023-12-20T04:09:57;2.80;;;2.60;;
1799;SDS011;919;48.274;12.292;2023-12-20T04:12:24;3.50;;;2.50;;
1799;SDS011;919;48.274;12.292;2023-12-20T04:14:51;3.57;;;3.00;;
1799;SDS011;919;48.274;12.292;2023-12-20T04:17:17;2.80;;;2.60;;
1799;SDS011;919;48.274;12.292;2023-12-20T04:19:44;3.90;;;2.90;;
1799;SDS011;919;48.274;12.292;2023-12-20T04:22:12;5.30;;;3.43;;
1799;SDS011;919;48.274;12.292;2023-12-20T04:24:39;2.93;;;2.73;;
1799;SDS011;919;48.274;12.292;2023-12-20T04:27:07;2.23;;;2.13;;
1799;SDS011;919;48.274;12.292;2023-12-20T04:29:34;1.63;;;1.53;;
1799;SDS011;919;48.274;12.292;2023-12-20T04:32:00;2.47;;;1.90;;
1799;SDS011;919;48.274;12.292;2023-12-20T04:34:27;2.30;;;1.80;;
1799;SDS011;919;48.274;12.292;2023-12-20T04:36:54;1.30;;;1.30;;
1799;SDS011;919;48.274;12.292;2023-12-20T04:39:22;1.50;;;1.40;;
1799;SDS011;919;48.274;12.292;2023-12-20T04:41:49;2.57;;;1.30;;
1799;SDS011;919;48.274;12.292;2023-12-20T04:44:15;1.20;;;1.10;;
1799;SDS011;919;48.274;12.292;2023-12-20T04:46:42;1.63;;;1.53;;
1799;SDS011;919;48.274;12.292;2023-12-20T04:49:09;1.13;;;1.03;;
1799;SDS011;919;48.274;12.292;2023-12-20T04:51:35;2.00;;;1.00;;
1799;SDS011;919;48.274;12.292;2023-12-20T04:54:03;1.43;;;1.13;;
1799;SDS011;919;48.274;12.292;2023-12-20T04:56:31;1.07;;;1.00;;
1799;SDS011;919;48.274;12.292;2023-12-20T04:58:57;1.27;;;1.20;;
1799;SDS011;919;48.274;12.292;2023-12-20T05:01:24;0.80;;;0.80;;
1799;SDS011;919;48.274;12.292;2023-12-20T05:03:51;1.30;;;1.20;;
1799;SDS011;919;48.274;12.292;2023-12-20T05:06:17;1.53;;;1.40;;
1799;SDS011;919;48.274;12.292;2023-12-20T05:08:44;1.33;;;1.27;;
1799;SDS011;919;48.274;12.292;2023-12-20T05:11:11;1.57;;;1.00;;
1799;SDS011;919;48.274;12.292;2023-12-20T05:13:40;1.00;;;1.00;;
1799;SDS011;919;48.274;12.292;2023-12-20T05:16:07;1.17;;;1.17;;
1799;SDS011;919;48.274;12.292;2023-12-20T05:18:35;1.43;;;1.10;;
1799;SDS011;919;48.274;12.292;2023-12-20T05:21:01;0.80;;;0.80;;
1799;SDS011;919;48.274;12.292;2023-12-20T05:23:28;1.03;;;1.03;;
1799;SDS011;919;48.274;12.292;2023-12-20T05:25:55;2.03;;;1.00;;
1799;SDS011;919;48.274;12.292;2023-12-20T05:28:21;1.40;;;1.30;;
1799;SDS011;919;48.274;12.292;2023-12-20T05:30:49;1.27;;;1.20;;
1799;SDS011;919;48.274;12.292;2023-12-20T05:33:16;1.27;;;1.27;;
1799;SDS011;919;48.274;12.292;2023-12-20T05:35:43;1.40;;;1.30;;
1799;SDS011;919;48.274;12.292;2023-12-20T05:38:09;2.20;;;1.40;;
1799;SDS011;919;48.274;12.292;2023-12-20T05:40:36;1.60;;;1.50;;
1799;SDS011;919;48.274;12.292;2023-12-20T05:43:03;1.13;;;1.03;;
1799;SDS011;919;48.274;12.292;2023-12-20T05:45:30;1.50;;;1.40;;
1799;SDS011;919;48.274;12.292;2023-12-20T05:47:58;1.27;;;1.27;;
1799;SDS011;919;48.274;12.292;2023-12-20T05:50:24;2.07;;;1.80;;
1799;SDS011;919;48.274;12.292;2023-12-20T05:52:51;1.93;;;1.73;;
1799;SDS011;919;48.274;12.292;2023-12-20T05:55:18;1.90;;;1.80;;
1799;SDS011;919;48.274;12.292;2023-12-20T05:57:45;2.30;;;2.20;;
1799;SDS011;919;48.274;12.292;2023-12-20T06:00:12;3.23;;;2.10;;
1799;SDS011;919;48.274;12.292;2023-12-20T06:02:40;1.77;;;1.67;;
1799;SDS011;919;48.274;12.292;2023-12-20T06:05:08;2.23;;;1.70;;
1799;SDS011;919;48.274;12.292;2023-12-20T06:07:35;2.57;;;2.37;;
1799;SDS011;919;48.274;12.292;2023-12-20T06:10:02;4.60;;;1.83;;
1799;SDS011;919;48.274;12.292;2023-12-20T06:12:29;2.30;;;2.10;;
1799;SDS011;919;48.274;12.292;2023-12-20T06:14:57;2.77;;;2.50;;
1799;SDS011;919;48.274;12.292;2023-12-20T06:17:23;3.10;;;2.43;;
1799;SDS011;919;48.274;12.292;2023-12-20T06:19:50;2.60;;;2.40;;
1799;SDS011;919;48.274;12.292;2023-12-20T06:22:18;2.50;;;2.27;;
1799;SDS011;919;48.274;12.292;2023-12-20T06:24:45;2.63;;;2.37;;
1799;SDS011;919;48.274;12.292;2023-12-20T06:27:12;2.90;;;2.60;;
1799;SDS011;919;48.274;12.292;2023-12-20T06:29:38;2.77;;;2.57;;
1799;SDS011;919;48.274;12.292;2023-12-20T06:32:06;3.93;;;2.63;;
1799;SDS011;919;48.274;12.292;2023-12-20T06:34:32;3.03;;;2.70;;
1799;SDS011;919;48.274;12.292;2023-12-20T06:36:59;3.30;;;3.00;;
1799;SDS011;919;48.274;12.292;2023-12-20T06:39:27;2.33;;;2.13;;
1799;SDS011;919;48.274;12.292;2023-12-20T06:41:55;2.43;;;2.07;;
1799;SDS011;919;48.274;12.292;2023-12-20T06:44:22;3.40;;;3.10;;
1799;SDS011;919;48.274;12.292;2023-12-20T06:46:49;4.90;;;3.70;;
1799;SDS011;919;48.274;12.292;2023-12-20T06:49:15;3.17;;;2.80;;
1799;SDS011;919;48.274;12.292;2023-12-20T06:51:42;2.90;;;2.70;;
1799;SDS011;919;48.274;12.292;2023-12-20T06:54:09;3.10;;;2.67;;
1799;SDS011;919;48.274;12.292;2023-12-20T06:56:37;3.10;;;2.80;;
1799;SDS011;919;48.274;12.292;2023-12-20T06:59:03;3.40;;;3.10;;
1799;SDS011;919;48.274;12.292;2023-12-20T07:01:31;3.63;;;3.00;;
1799;SDS011;919;48.274;12.292;2023-12-20T07:03:58;3.30;;;3.00;;
1799;SDS011;919;48.274;12.292;2023-12-20T07:06:24;3.60;;;2.40;;
1799;SDS011;919;48.274;12.292;2023-12-20T07:08:51;3.37;;;2.90;;
1799;SDS011;919;48.274;12.292;2023-12-20T07:11:18;3.00;;;2.57;;
1799;SDS011;919;48.274;12.292;2023-12-20T07:13:46;2.53;;;2.43;;
1799;SDS011;919;48.274;12.292;2023-12-20T07:16:13;3.57;;;2.60;;
1799;SDS011;919;48.274;12.292;2023-12-20T07:18:40;2.50;;;2.30;;
1799;SDS011;919;48.274;12.292;2023-12-20T07:21:07;2.90;;;2.20;;
1799;SDS011;919;48.274;12.292;2023-12-20T07:23:34;2.90;;;2.60;;
1799;SDS011;919;48.274;12.292;2023-12-20T07:26:00;2.77;;;2.57;;
1799;SDS011;919;48.274;12.292;2023-12-20T07:28:27;3.27;;;2.70;;
1799;SDS011;919;48.274;12.292;2023-12-20T07:30:55;2.83;;;2.63;;
1799;SDS011;919;48.274;12.292;2023-12-20T07:33:21;3.60;;;3.30;;
1799;SDS011;919;48.274;12.292;2023-12-20T07:35:48;2.57;;;2.37;;
1799;SDS011;919;48.274;12.292;2023-12-20T07:38:16;3.23;;;2.70;;
1799;SDS011;919;48.274;12.292;2023-12-20T07:40:43;2.83;;;2.63;;
1799;SDS011;919;48.274;12.292;2023-12-20T07:43:10;3.57;;;2.70;;
1799;SDS011;919;48.274;12.292;2023-12-20T07:45:36;2.90;;;2.70;;
1799;SDS011;919;48.274;12.292;2023-12-20T07:48:05;3.13;;;2.83;;
1799;SDS011;919;48.274;12.292;2023-12-20T07:50:33;2.60;;;2.40;;
1799;SDS011;919;48.274;12.292;2023-12-20T07:52:59;3.03;;;2.57;;
1799;SDS011;919;48.274;12.292;2023-12-20T07:55:26;3.40;;;3.10;;
1799;SDS011;919;48.274;12.292;2023-12-20T07:57:53;2.67;;;2.57;;
1799;SDS011;919;48.274;12.292;2023-12-20T08:00:20;3.03;;;2.73;;
1799;SDS011;919;48.274;12.292;2023-12-20T08:02:47;3.30;;;2.97;;
1799;SDS011;919;48.274;12.292;2023-12-20T08:05:15;3.77;;;3.47;;
1799;SDS011;919;48.274;12.292;2023-12-20T08:07:41;3.60;;;3.30;;
1799;SDS011;919;48.274;12.292;2023-12-20T08:10:08;2.80;;;2.60;;
1799;SDS011;919;48.274;12.292;2023-12-20T08:12:35;3.60;;;2.97;;
1799;SDS011;919;48.274;12.292;2023-12-20T08:15:02;3.60;;;3.13;;
1799;SDS011;919;48.274;12.292;2023-12-20T08:17:29;2.73;;;2.53;;
1799;SDS011;919;48.274;12.292;2023-12-20T08:19:55;2.97;;;2.40;;
1799;SDS011;919;48.274;12.292;2023-12-20T08:22:23;4.10;;;3.00;;
1799;SDS011;919;48.274;12.292;2023-12-20T08:24:50;2.90;;;2.50;;
1799;SDS011;919;48.274;12.292;2023-12-20T08:27:17;1.90;;;1.80;;
1799;SDS011;919;48.274;12.292;2023-12-20T08:29:44;2.23;;;2.13;;
1799;SDS011;919;48.274;12.292;2023-12-20T08:32:11;3.67;;;2.50;;
1799;SDS011;919;48.274;12.292;2023-12-20T08:34:37;3.20;;;2.50;;
1799;SDS011;919;48.274;12.292;2023-12-20T08:37:04;3.27;;;2.73;;
1799;SDS011;919;48.274;12.292;2023-12-20T08:39:35;3.27;;;2.97;;
1799;SDS011;919;48.274;12.292;2023-12-20T08:42:02;3.30;;;3.10;;
1799;SDS011;919;48.274;12.292;2023-12-20T08:44:29;2.50;;;2.30;;
1799;SDS011;919;48.274;12.292;2023-12-20T08:46:55;2.07;;;1.93;;
1799;SDS011;919;48.274;12.292;2023-12-20T08:49:22;2.53;;;2.30;;
1799;SDS011;919;48.274;12.292;2023-12-20T08:51:50;3.70;;;2.60;;
1799;SDS011;919;48.274;12.292;2023-12-20T08:54:17;2.30;;;2.10;;
1799;SDS011;919;48.274;12.292;2023-12-20T08:56:45;2.13;;;2.00;;
1799;SDS011;919;48.274;12.292;2023-12-20T08:59:12;1.97;;;1.87;;
1799;SDS011;919;48.274;12.292;2023-12-20T09:01:39;2.03;;;1.87;;
1799;SDS011;919;48.274;12.292;2023-12-20T09:04:05;2.27;;;2.07;;
1799;SDS011;919;48.274;12.292;2023-12-20T09:06:32;1.90;;;1.80;;
1799;SDS011;919;48.274;12.292;2023-12-20T09:08:59;1.97;;;1.87;;
1799;SDS011;919;48.274;12.292;2023-12-20T09:11:25;3.60;;;2.00;;
1799;SDS011;919;48.274;12.292;2023-12-20T09:13:53;1.93;;;1.80;;
1799;SDS011;919;48.274;12.292;2023-12-20T09:16:20;2.03;;;1.83;;
1799;SDS011;919;48.274;12.292;2023-12-20T09:18:47;1.60;;;1.50;;
1799;SDS011;919;48.274;12.292;2023-12-20T09:21:14;2.80;;;1.27;;
1799;SDS011;919;48.274;12.292;2023-12-20T09:23:40;4.17;;;1.50;;
1799;SDS011;919;48.274;12.292;2023-12-20T09:26:07;1.90;;;1.80;;
1799;SDS011;919;48.274;12.292;2023-12-20T09:28:34;2.40;;;1.40;;
1799;SDS011;919;48.274;12.292;2023-12-20T09:31:03;1.70;;;1.37;;
1799;SDS011;919;48.274;12.292;2023-12-20T09:33:31;1.87;;;1.77;;
1799;SDS011;919;48.274;12.292;2023-12-20T09:35:58;1.73;;;1.63;;
1799;SDS011;919;48.274;12.292;2023-12-20T09:38:25;2.33;;;1.50;;
1799;SDS011;919;48.274;12.292;2023-12-20T09:40:51;1.80;;;1.70;;
1799;SDS011;919;48.274;12.292;2023-12-20T09:43:19;2.17;;;1.27;;
1799;SDS011;919;48.274;12.292;2023-12-20T09:45:46;1.57;;;1.47;;
1799;SDS011;919;48.274;12.292;2023-12-20T09:48:15;2.10;;;1.40;;
1799;SDS011;919;48.274;12.292;2023-12-20T09:50:44;1.50;;;1.40;;
1799;SDS011;919;48.274;12.292;2023-12-20T09:53:11;1.57;;;1.47;;
1799;SDS011;919;48.274;12.292;2023-12-20T09:55:42;1.73;;;1.60;;
1799;SDS011;919;48.274;12.292;2023-12-20T09:58:08;2.60;;;2.40;;
1799;SDS011;919;48.274;12.292;2023-12-20T10:00:35;2.87;;;2.67;;
1799;SDS011;919;48.274;12.292;2023-12-20T10:03:02;1.60;;;1.50;;
1799;SDS011;919;48.274;12.292;2023-12-20T10:05:33;1.20;;;1.10;;
1799;SDS011;919;48.274;12.292;2023-12-20T10:08:00;1.20;;;1.20;;
1799;SDS011;919;48.274;12.292;2023-12-20T10:10:28;1.00;;;1.00;;
1799;SDS011;919;48.274;12.292;2023-12-20T10:13:01;1.30;;;1.20;;
1799;SDS011;919;48.274;12.292;2023-12-20T10:15:29;1.23;;;1.13;;
1799;SDS011;919;48.274;12.292;2023-12-20T10:17:56;1.70;;;1.60;;
1799;SDS011;919;48.274;12.292;2023-12-20T10:20:24;1.57;;;1.03;;
1799;SDS011;919;48.274;12.292;2023-12-20T10:22:52;1.30;;;1.20;;
1799;SDS011;919;48.274;12.292;2023-12-20T10:25:19;1.93;;;1.83;;
1799;SDS011;919;48.274;12.292;2023-12-20T10:27:47;1.20;;;1.20;;
1799;SDS011;919;48.274;12.292;2023-12-20T10:30:14;1.10;;;1.00;;
1799;SDS011;919;48.274;12.292;2023-12-20T10:32:41;1.47;;;1.37;;
1799;SDS011;919;48.274;12.292;2023-12-20T10:35:08;1.70;;;1.60;;
1799;SDS011;919;48.274;12.292;2023-12-20T10:37:36;1.57;;;1.47;;
1799;SDS011;919;48.274;12.292;2023-12-20T10:40:05;1.33;;;1.30;;
1799;SDS011;919;48.274;12.292;2023-12-20T10:42:32;1.50;;;1.40;;
1799;SDS011;919;48.274;12.292;2023-12-20T10:44:59;1.33;;;1.23;;
1799;SDS011;919;48.274;12.292;2023-12-20T10:47:26;3.43;;;1.90;;
1799;SDS011;919;48.274;12.292;2023-12-20T10:49:56;2.90;;;1.60;;
1799;SDS011;919;48.274;12.292;2023-12-20T10:52:25;2.00;;;1.87;;
1799;SDS011;919;48.274;12.292;2023-12-20T10:54:53;2.43;;;2.00;;
1799;SDS011;919;48.274;12.292;2023-12-20T10:57:21;1.80;;;1.70;;
1799;SDS011;919;48.274;12.292;2023-12-20T10:59:48;1.43;;;1.30;;
1799;SDS011;919;48.274;12.292;2023-12-20T11:02:19;3.17;;;1.70;;
1799;SDS011;919;48.274;12.292;2023-12-20T11:04:49;1.50;;;1.40;;
1799;SDS011;919;48.274;12.292;2023-12-20T11:07:21;1.50;;;1.40;;
1799;SDS011;919;48.274;12.292;2023-12-20T11:09:56;2.97;;;1.70;;
1799;SDS011;919;48.274;12.292;2023-12-20T11:12:32;1.70;;;1.60;;
1799;SDS011;919;48.274;12.292;2023-12-20T11:15:03;2.80;;;2.10;;
1799;SDS011;919;48.274;12.292;2023-12-20T11:17:31;2.97;;;2.77;;
1799;SDS011;919;48.274;12.292;2023-12-20T11:20:05;5.70;;;1.87;;
1799;SDS011;919;48.274;12.292;2023-12-20T11:22:37;2.10;;;1.90;;
1799;SDS011;919;48.274;12.292;2023-12-20T11:25:07;1.93;;;1.83;;
1799;SDS011;919;48.274;12.292;2023-12-20T11:27:36;1.77;;;1.67;;
1799;SDS011;919;48.274;12.292;2023-12-20T11:30:06;2.50;;;2.00;;
1799;SDS011;919;48.274;12.292;2023-12-20T11:32:35;2.33;;;2.13;;
1799;SDS011;919;48.274;12.292;2023-12-20T11:35:16;2.07;;;1.87;;
1799;SDS011;919;48.274;12.292;2023-12-20T11:37:44;2.20;;;2.10;;
1799;SDS011;919;48.274;12.292;2023-12-20T11:40:13;3.10;;;2.80;;
1799;SDS011;919;48.274;12.292;2023-12-20T11:42:43;2.60;;;2.40;;
1799;SDS011;919;48.274;12.292;2023-12-20T11:45:11;1.70;;;1.60;;
1799;SDS011;919;48.274;12.292;2023-12-20T11:47:41;2.27;;;1.90;;
1799;SDS011;919;48.274;12.292;2023-12-20T11:50:08;2.80;;;2.60;;
1799;SDS011;919;48.274;12.292;2023-12-20T11:52:35;2.37;;;2.17;;
1799;SDS011;919;48.274;12.292;2023-12-20T11:55:02;2.30;;;2.10;;
1799;SDS011;919;48.274;12.292;2023-12-20T11:57:30;2.23;;;2.10;;
1799;SDS011;919;48.274;12.292;2023-12-20T11:59:58;1.50;;;1.37;;
1799;SDS011;919;48.274;12.292;2023-12-20T12:02:25;1.60;;;1.50;;
1799;SDS011;919;48.274;12.292;2023-12-20T12:04:51;1.93;;;1.80;;
1799;SDS011;919;48.274;12.292;2023-12-20T12:07:18;1.13;;;1.13;;
1799;SDS011;919;48.274;12.292;2023-12-20T12:09:45;2.73;;;2.53;;
1799;SDS011;919;48.274;12.292;2023-12-20T12:12:12;1.63;;;1.57;;
1799;SDS011;919;48.274;12.292;2023-12-20T12:14:40;1.90;;;1.70;;
1799;SDS011;919;48.274;12.292;2023-12-20T12:17:11;1.53;;;1.33;;
1799;SDS011;919;48.274;12.292;2023-12-20T12:19:37;1.23;;;1.23;;
1799;SDS011;919;48.274;12.292;2023-12-20T12:22:04;1.00;;;1.00;;
1799;SDS011;919;48.274;12.292;2023-12-20T12:24:33;1.43;;;1.33;;
1799;SDS011;919;48.274;12.292;2023-12-20T12:27:00;1.53;;;1.43;;
1799;SDS011;919;48.274;12.292;2023-12-20T12:29:27;1.17;;;1.17;;
1799;SDS011;919;48.274;12.292;2023-12-20T12:31:54;0.80;;;0.80;;
1799;SDS011;919;48.274;12.292;2023-12-20T12:34:22;1.70;;;1.10;;
1799;SDS011;919;48.274;12.292;2023-12-20T12:36:49;4.53;;;1.10;;
1799;SDS011;919;48.274;12.292;2023-12-20T12:39:17;1.17;;;1.17;;
1799;SDS011;919;48.274;12.292;2023-12-20T12:41:44;1.23;;;1.23;;
1799;SDS011;919;48.274;12.292;2023-12-20T12:44:11;1.03;;;0.97;;
1799;SDS011;919;48.274;12.292;2023-12-20T12:46:37;1.20;;;1.20;;
1799;SDS011;919;48.274;12.292;2023-12-20T12:49:04;1.43;;;1.37;;
1799;SDS011;919;48.274;12.292;2023-12-20T12:51:32;1.43;;;1.40;;
1799;SDS011;919;48.274;12.292;2023-12-20T12:53:59;1.93;;;1.83;;
1799;SDS011;919;48.274;12.292;2023-12-20T12:56:26;1.73;;;1.63;;
1799;SDS011;919;48.274;12.292;2023-12-20T12:58:52;1.83;;;1.73;;
1799;SDS011;919;48.274;12.292;2023-12-20T13:01:19;1.80;;;1.70;;
1799;SDS011;919;48.274;12.292;2023-12-20T13:03:46;1.80;;;1.70;;
1799;SDS011;919;48.274;12.292;2023-12-20T13:06:13;2.80;;;2.50;;
1799;SDS011;919;48.274;12.292;2023-12-20T13:08:41;3.30;;;3.00;;
1799;SDS011;919;48.274;12.292;2023-12-20T13:11:07;2.80;;;2.60;;
1799;SDS011;919;48.274;12.292;2023-12-20T13:13:34;3.20;;;2.97;;
1799;SDS011;919;48.274;12.292;2023-12-20T13:16:01;2.53;;;2.33;;
1799;SDS011;919;48.274;12.292;2023-12-20T13:18:28;3.67;;;2.40;;
1799;SDS011;919;48.274;12.292;2023-12-20T13:20:55;2.27;;;2.10;;
1799;SDS011;919;48.274;12.292;2023-12-20T13:23:22;3.37;;;2.47;;
1799;SDS011;919;48.274;12.292;2023-12-20T13:25:49;2.43;;;2.27;;
1799;SDS011;919;48.274;12.292;2023-12-20T13:28:16;1.70;;;1.60;;
1799;SDS011;919;48.274;12.292;2023-12-20T13:30:43;2.27;;;2.07;;
1799;SDS011;919;48.274;12.292;2023-12-20T13:33:10;2.40;;;2.20;;
1799;SDS011;919;48.274;12.292;2023-12-20T13:35:37;2.40;;;2.30;;
1799;SDS011;919;48.274;12.292;2023-12-20T13:38:04;2.47;;;2.23;;
1799;SDS011;919;48.274;12.292;2023-12-20T13:40:31;4.30;;;2.00;;
1799;SDS011;919;48.274;12.292;2023-12-20T13:43:00;2.00;;;1.90;;
1799;SDS011;919;48.274;12.292;2023-12-20T13:45:28;2.43;;;2.23;;
1799;SDS011;919;48.274;12.292;2023-12-20T13:47:54;2.80;;;2.47;;
1799;SDS011;919;48.274;12.292;2023-12-20T13:50:21;2.43;;;2.13;;
1799;SDS011;919;48.274;12.292;2023-12-20T13:52:48;2.00;;;1.80;;
1799;SDS011;919;48.274;12.292;2023-12-20T13:55:14;2.40;;;2.20;;
1799;SDS011;919;48.274;12.292;2023-12-20T13:57:41;1.77;;;1.67;;
1799;SDS011;919;48.274;12.292;2023-12-20T14:00:10;2.67;;;2.40;;
1799;SDS011;919;48.274;12.292;2023-12-20T14:02:39;2.80;;;2.47;;
1799;SDS011;919;48.274;12.292;2023-12-20T14:05:07;2.50;;;2.30;;
1799;SDS011;919;48.274;12.292;2023-12-20T14:07:34;2.77;;;2.30;;
1799;SDS011;919;48.274;12.292;2023-12-20T14:10:01;1.90;;;1.50;;
1799;SDS011;919;48.274;12.292;2023-12-20T14:12:28;2.03;;;1.70;;
1799;SDS011;919;48.274;12.292;2023-12-20T14:14:55;1.80;;;1.70;;
1799;SDS011;919;48.274;12.292;2023-12-20T14:17:23;4.00;;;1.53;;
1799;SDS011;919;48.274;12.292;2023-12-20T14:19:49;1.57;;;1.47;;
1799;SDS011;919;48.274;12.292;2023-12-20T14:22:16;1.37;;;1.20;;
1799;SDS011;919;48.274;12.292;2023-12-20T14:24:43;1.40;;;1.30;;
1799;SDS011;919;48.274;12.292;2023-12-20T14:27:10;1.53;;;1.43;;
1799;SDS011;919;48.274;12.292;2023-12-20T14:29:38;1.53;;;1.43;;
1799;SDS011;919;48.274;12.292;2023-12-20T14:32:05;4.57;;;2.03;;
1799;SDS011;919;48.274;12.292;2023-12-20T14:34:33;4.80;;;1.70;;
1799;SDS011;919;48.274;12.292;2023-12-20T14:37:01;1.40;;;1.30;;
1799;SDS011;919;48.274;12.292;2023-12-20T14:39:28;1.50;;;1.40;;
1799;SDS011;919;48.274;12.292;2023-12-20T14:41:55;1.40;;;1.30;;
1799;SDS011;919;48.274;12.292;2023-12-20T14:44:22;1.17;;;1.13;;
1799;SDS011;919;48.274;12.292;2023-12-20T14:46:49;2.00;;;1.60;;
1799;SDS011;919;48.274;12.292;2023-12-20T14:49:16;1.33;;;1.23;;
1799;SDS011;919;48.274;12.292;2023-12-20T14:51:44;1.73;;;1.63;;
1799;SDS011;919;48.274;12.292;2023-12-20T14:54:12;1.63;;;1.50;;
1799;SDS011;919;48.274;12.292;2023-12-20T14:56:39;1.20;;;1.20;;
1799;SDS011;919;48.274;12.292;2023-12-20T14:59:06;4.27;;;2.20;;
1799;SDS011;919;48.274;12.292;2023-12-20T15:01:33;3.10;;;1.70;;
1799;SDS011;919;48.274;12.292;2023-12-20T15:04:01;1.20;;;1.20;;
1799;SDS011;919;48.274;12.292;2023-12-20T15:06:29;2.03;;;1.43;;
1799;SDS011;919;48.274;12.292;2023-12-20T15:08:58;4.03;;;1.30;;
1799;SDS011;919;48.274;12.292;2023-12-20T15:11:25;2.50;;;1.47;;
1799;SDS011;919;48.274;12.292;2023-12-20T15:13:52;5.30;;;1.93;;
1799;SDS011;919;48.274;12.292;2023-12-20T15:16:21;3.63;;;1.23;;